Portada
METAR-TAF:

METAR-TAF

Aeropuertos :

Latina, Italia

latitud: 41-33N, longitud: 012-54E, altitud: 25 m

Observación

El informe se hizo hace 1 hora y 30 minutos, a las 17:55 UTC
Viento 4 kt del este-noreste
Temperatura 11°C
Humedad 94%
Presión 1018 hPa
Visibilidad: 8000 m
Nubes dispersas a una altura de 2000 ft
Cielo nuboso a una altura de 3000 ft

METAR: LIRL 051755Z 06004KT 8000 SCT020 BKN030 11/10 Q1018 RMK OVC MON INVIS VAR RAPID VIS MIN 8000 WIND THR12 /////KT WIND THR30 06003KT BLU

Hora: 20:25 (19:25 UTC)

Pronóstico

El informe se hizo hace 5 horas y 25 minutos, a las 14:00 UTC
Pronóstico válido del 05 a las 15 UTC al 05 a las 24 UTC
Viento 5 kt del sur
Visibilidad 10 km o más
Nubes dispersas a una altura de 2000 ft
Cielo nuboso a una altura de 4000 ft
Temporalmente
del 05 a las 15 UTC al 05 a las 18 UTC
lluvia

TAF: LIRL 051400Z 0515/0524 18005KT 9999 SCT020 BKN040 TEMPO 0515/0518 RA

Observaciones y pronósticos meteorológicos de más de 4000 aeropuertos (mensajes METAR y TAF).

Los puntos amarillos y rojos representan las estaciones disponibles.

Ponga el ratón en el punto deseado para ver el nombre de la estación.

Haga clic para ver las observaciones y los pronósticos meteorológicos.

Para cambiar el mapa : haga clic en los botones verdes con una cruz de color negro para hacer un zoom, en el botón verde con un guión para alejar o en las flechas verdes para mapas adyacentes.


METAR-TAF: